sensor_id;sensor_type;location;lat;lon;timestamp;temperature;humidity
1992;DHT22;997;48.448;8.924;2023-01-29T05:42:31;1.70;99.90
1992;DHT22;997;48.448;8.924;2023-01-29T05:44:57;1.70;99.90
1992;DHT22;997;48.448;8.924;2023-01-29T05:47:23;1.60;99.90
1992;DHT22;997;48.448;8.924;2023-01-29T05:49:48;1.40;99.90
1992;DHT22;997;48.448;8.924;2023-01-29T05:52:14;1.40;99.90
1992;DHT22;997;48.448;8.924;2023-01-29T06:07:36;2.00;99.90
1992;DHT22;997;48.448;8.924;2023-01-29T06:10:04;2.00;99.90
1992;DHT22;997;48.448;8.924;2023-01-29T06:12:30;1.90;99.90
1992;DHT22;997;48.448;8.924;2023-01-29T06:14:56;1.90;99.90
1992;DHT22;997;48.448;8.924;2023-01-29T06:17:22;1.60;99.90
1992;DHT22;997;48.448;8.924;2023-01-29T06:19:47;1.60;99.90
1992;DHT22;997;48.448;8.924;2023-01-29T06:22:13;1.50;99.90
1992;DHT22;997;48.448;8.924;2023-01-29T06:24:39;1.50;99.90
1992;DHT22;997;48.448;8.924;2023-01-29T06:27:04;1.50;99.90
1992;DHT22;997;48.448;8.924;2023-01-29T06:29:30;1.50;99.90
1992;DHT22;997;48.448;8.924;2023-01-29T06:31:56;1.60;99.90
1992;DHT22;997;48.448;8.924;2023-01-29T06:34:22;1.70;99.90
1992;DHT22;997;48.448;8.924;2023-01-29T08:49:02;1.70;99.90
1992;DHT22;997;48.448;8.924;2023-01-29T13:16:36;3.60;99.90
1992;DHT22;997;48.448;8.924;2023-01-29T13:19:35;3.60;99.90
1992;DHT22;997;48.448;8.924;2023-01-29T13:22:01;3.50;99.90
1992;DHT22;997;48.448;8.924;2023-01-29T13:24:38;3.30;99.90
1992;DHT22;997;48.448;8.924;2023-01-29T13:27:05;3.20;99.90
1992;DHT22;997;48.448;8.924;2023-01-29T13:29:31;3.20;99.90
1992;DHT22;997;48.448;8.924;2023-01-29T13:31:59;3.20;99.90
1992;DHT22;997;48.448;8.924;2023-01-29T13:34:29;3.20;99.90
1992;DHT22;997;48.448;8.924;2023-01-29T13:40:26;3.40;99.90
1992;DHT22;997;48.448;8.924;2023-01-29T13:42:53;3.30;99.90
1992;DHT22;997;48.448;8.924;2023-01-29T13:48:09;3.60;99.90
1992;DHT22;997;48.448;8.924;2023-01-29T13:50:40;3.40;99.90
1992;DHT22;997;48.448;8.924;2023-01-29T13:53:20;3.30;99.90
1992;DHT22;997;48.448;8.924;2023-01-29T13:55:47;3.20;99.90
1992;DHT22;997;48.448;8.924;2023-01-29T14:00:58;3.00;99.90
1992;DHT22;997;48.448;8.924;2023-01-29T14:13:42;3.70;99.90
1992;DHT22;997;48.448;8.924;2023-01-29T14:19:17;3.70;99.90
1992;DHT22;997;48.448;8.924;2023-01-29T14:21:36;3.80;99.90
1992;DHT22;997;48.448;8.924;2023-01-29T14:24:19;3.80;99.90
1992;DHT22;997;48.448;8.924;2023-01-29T14:26:47;3.90;99.90
1992;DHT22;997;48.448;8.924;2023-01-29T14:29:30;3.90;99.90
1992;DHT22;997;48.448;8.924;2023-01-29T14:34:47;3.90;99.90
1992;DHT22;997;48.448;8.924;2023-01-29T14:39:56;4.10;99.90
1992;DHT22;997;48.448;8.924;2023-01-29T14:45:00;4.30;99.90
1992;DHT22;997;48.448;8.924;2023-01-29T14:50:01;4.30;99.90
1992;DHT22;997;48.448;8.924;2023-01-29T14:52:35;4.30;99.90
1992;DHT22;997;48.448;8.924;2023-01-29T14:55:06;4.20;99.90
1992;DHT22;997;48.448;8.924;2023-01-29T14:57:33;4.10;99.90
1992;DHT22;997;48.448;8.924;2023-01-29T15:00:05;4.20;99.90
1992;DHT22;997;48.448;8.924;2023-01-29T15:02:39;4.20;99.90
1992;DHT22;997;48.448;8.924;2023-01-29T15:05:17;4.20;99.90
1992;DHT22;997;48.448;8.924;2023-01-29T15:07:50;4.10;99.90
1992;DHT22;997;48.448;8.924;2023-01-29T15:15:51;3.90;99.90
1992;DHT22;997;48.448;8.924;2023-01-29T15:18:28;3.80;99.90
1992;DHT22;997;48.448;8.924;2023-01-29T15:21:04;3.80;99.90
1992;DHT22;997;48.448;8.924;2023-01-29T15:23:36;3.80;99.90
1992;DHT22;997;48.448;8.924;2023-01-29T15:26:05;3.70;99.90
1992;DHT22;997;48.448;8.924;2023-01-29T15:28:33;3.70;99.90
1992;DHT22;997;48.448;8.924;2023-01-29T15:31:02;3.70;99.90
1992;DHT22;997;48.448;8.924;2023-01-29T15:33:30;3.40;99.90
1992;DHT22;997;48.448;8.924;2023-01-29T15:35:58;3.10;99.90
1992;DHT22;997;48.448;8.924;2023-01-29T15:38:24;3.00;99.90
1992;DHT22;997;48.448;8.924;2023-01-29T15:41:03;3.00;99.90
1992;DHT22;997;48.448;8.924;2023-01-29T15:43:33;3.00;99.90
1992;DHT22;997;48.448;8.924;2023-01-29T15:46:26;3.00;99.90
1992;DHT22;997;48.448;8.924;2023-01-29T15:48:56;2.90;99.90
1992;DHT22;997;48.448;8.924;2023-01-29T15:51:25;3.00;99.90
1992;DHT22;997;48.448;8.924;2023-01-29T15:53:57;3.10;99.90
1992;DHT22;997;48.448;8.924;2023-01-29T15:56:37;3.00;99.90
1992;DHT22;997;48.448;8.924;2023-01-29T15:59:05;3.20;99.90
1992;DHT22;997;48.448;8.924;2023-01-29T16:01:31;3.30;99.90
1992;DHT22;997;48.448;8.924;2023-01-29T16:03:59;3.20;99.90
1992;DHT22;997;48.448;8.924;2023-01-29T16:06:38;3.20;99.90
1992;DHT22;997;48.448;8.924;2023-01-29T16:09:05;3.00;99.90
1992;DHT22;997;48.448;8.924;2023-01-29T16:11:32;3.00;99.90
1992;DHT22;997;48.448;8.924;2023-01-29T16:13:57;3.00;99.90
1992;DHT22;997;48.448;8.924;2023-01-29T16:16:25;3.10;99.90
1992;DHT22;997;48.448;8.924;2023-01-29T16:18:51;3.20;99.90
1992;DHT22;997;48.448;8.924;2023-01-29T16:21:23;3.20;99.90
1992;DHT22;997;48.448;8.924;2023-01-29T16:23:56;3.20;99.90
1992;DHT22;997;48.448;8.924;2023-01-29T16:26:28;3.10;99.90
1992;DHT22;997;48.448;8.924;2023-01-29T16:28:56;3.10;99.90
1992;DHT22;997;48.448;8.924;2023-01-29T16:31:28;3.00;99.90
1992;DHT22;997;48.448;8.924;2023-01-29T16:33:56;2.90;99.90
1992;DHT22;997;48.448;8.924;2023-01-29T16:36:24;2.90;99.90
1992;DHT22;997;48.448;8.924;2023-01-29T16:39:01;2.80;99.90
1992;DHT22;997;48.448;8.924;2023-01-29T16:41:33;2.70;99.90
1992;DHT22;997;48.448;8.924;2023-01-29T16:44:22;2.60;99.90
1992;DHT22;997;48.448;8.924;2023-01-29T16:46:48;2.50;99.90
1992;DHT22;997;48.448;8.924;2023-01-29T16:51:56;2.30;99.90
1992;DHT22;997;48.448;8.924;2023-01-29T16:54:42;2.20;99.90
1992;DHT22;997;48.448;8.924;2023-01-29T16:57:22;2.10;99.90
1992;DHT22;997;48.448;8.924;2023-01-29T16:59:52;2.00;99.90
1992;DHT22;997;48.448;8.924;2023-01-29T17:02:38;1.90;99.90
1992;DHT22;997;48.448;8.924;2023-01-29T17:05:09;1.70;99.90
1992;DHT22;997;48.448;8.924;2023-01-29T17:07:44;1.60;99.90
1992;DHT22;997;48.448;8.924;2023-01-29T17:10:16;1.60;99.90
1992;DHT22;997;48.448;8.924;2023-01-29T17:18:20;1.50;99.90
1992;DHT22;997;48.448;8.924;2023-01-29T17:20:47;1.50;99.90
1992;DHT22;997;48.448;8.924;2023-01-29T17:23:13;1.60;99.90
1992;DHT22;997;48.448;8.924;2023-01-29T17:25:39;1.50;99.90
1992;DHT22;997;48.448;8.924;2023-01-29T17:28:05;1.50;99.90
1992;DHT22;997;48.448;8.924;2023-01-29T17:30:33;1.50;99.90
1992;DHT22;997;48.448;8.924;2023-01-29T17:35:37;1.50;99.90
1992;DHT22;997;48.448;8.924;2023-01-29T17:38:02;1.50;99.90
1992;DHT22;997;48.448;8.924;2023-01-29T17:40:48;1.40;99.90
1992;DHT22;997;48.448;8.924;2023-01-29T17:43:16;1.40;99.90
1992;DHT22;997;48.448;8.924;2023-01-29T17:45:41;1.30;99.90
1992;DHT22;997;48.448;8.924;2023-01-29T17:48:22;1.10;99.90
1992;DHT22;997;48.448;8.924;2023-01-29T17:50:53;1.00;99.90
1992;DHT22;997;48.448;8.924;2023-01-29T17:53:20;0.90;99.90
1992;DHT22;997;48.448;8.924;2023-01-29T17:55:47;0.80;99.90
1992;DHT22;997;48.448;8.924;2023-01-29T17:58:20;0.80;99.90
1992;DHT22;997;48.448;8.924;2023-01-29T18:00:46;0.70;99.90
1992;DHT22;997;48.448;8.924;2023-01-29T18:03:12;0.80;99.90
1992;DHT22;997;48.448;8.924;2023-01-29T18:05:38;0.80;99.90
1992;DHT22;997;48.448;8.924;2023-01-29T18:08:23;0.70;99.90
1992;DHT22;997;48.448;8.924;2023-01-29T18:10:51;0.70;99.90
1992;DHT22;997;48.448;8.924;2023-01-29T18:13:16;0.80;99.90
1992;DHT22;997;48.448;8.924;2023-01-29T18:15:42;0.70;99.90
1992;DHT22;997;48.448;8.924;2023-01-29T18:18:12;0.70;99.90
1992;DHT22;997;48.448;8.924;2023-01-29T18:20:38;0.60;99.90
1992;DHT22;997;48.448;8.924;2023-01-29T18:23:05;0.60;99.90
1992;DHT22;997;48.448;8.924;2023-01-29T18:25:32;0.50;99.90
